sensor_id;sensor_type;location;lat;lon;timestamp;P1;durP1;ratioP1;P2;durP2;ratioP2
44706;SDS011;30433;45.596;8.408;2023-09-19T00:01:42;12.18;;;6.50;;
44706;SDS011;30433;45.596;8.408;2023-09-19T00:07:47;9.73;;;5.70;;
44706;SDS011;30433;45.596;8.408;2023-09-19T00:13:51;9.15;;;5.57;;
44706;SDS011;30433;45.596;8.408;2023-09-19T00:19:53;9.52;;;5.45;;
44706;SDS011;30433;45.596;8.408;2023-09-19T00:25:59;9.13;;;5.32;;
44706;SDS011;30433;45.596;8.408;2023-09-19T00:32:01;10.82;;;5.75;;
44706;SDS011;30433;45.596;8.408;2023-09-19T00:38:05;11.02;;;5.32;;
44706;SDS011;30433;45.596;8.408;2023-09-19T00:44:09;9.55;;;5.30;;
44706;SDS011;30433;45.596;8.408;2023-09-19T00:50:12;16.00;;;5.55;;
44706;SDS011;30433;45.596;8.408;2023-09-19T00:56:17;14.10;;;5.80;;
44706;SDS011;30433;45.596;8.408;2023-09-19T01:02:21;10.52;;;5.47;;
44706;SDS011;30433;45.596;8.408;2023-09-19T01:08:23;11.27;;;6.25;;
44706;SDS011;30433;45.596;8.408;2023-09-19T01:14:31;13.20;;;6.07;;
44706;SDS011;30433;45.596;8.408;2023-09-19T01:20:43;12.65;;;6.13;;
44706;SDS011;30433;45.596;8.408;2023-09-19T01:33:27;9.80;;;5.03;;
44706;SDS011;30433;45.596;8.408;2023-09-19T01:39:33;10.90;;;5.20;;
44706;SDS011;30433;45.596;8.408;2023-09-19T01:45:37;9.13;;;5.20;;
44706;SDS011;30433;45.596;8.408;2023-09-19T01:51:51;13.80;;;4.93;;
44706;SDS011;30433;45.596;8.408;2023-09-19T01:58:04;9.75;;;5.28;;
44706;SDS011;30433;45.596;8.408;2023-09-19T02:04:09;12.18;;;4.75;;
44706;SDS011;30433;45.596;8.408;2023-09-19T02:10:13;6.78;;;4.75;;
44706;SDS011;30433;45.596;8.408;2023-09-19T02:16:17;8.77;;;4.75;;
44706;SDS011;30433;45.596;8.408;2023-09-19T02:22:20;8.77;;;4.13;;
44706;SDS011;30433;45.596;8.408;2023-09-19T02:28:26;7.85;;;4.80;;
44706;SDS011;30433;45.596;8.408;2023-09-19T02:34:30;10.40;;;4.43;;
44706;SDS011;30433;45.596;8.408;2023-09-19T02:40:32;8.27;;;4.28;;
44706;SDS011;30433;45.596;8.408;2023-09-19T02:46:37;11.05;;;4.43;;
44706;SDS011;30433;45.596;8.408;2023-09-19T02:52:41;11.93;;;4.28;;
44706;SDS011;30433;45.596;8.408;2023-09-19T02:58:44;9.77;;;4.25;;
44706;SDS011;30433;45.596;8.408;2023-09-19T03:04:49;10.77;;;4.07;;
44706;SDS011;30433;45.596;8.408;2023-09-19T03:10:52;7.50;;;4.03;;
44706;SDS011;30433;45.596;8.408;2023-09-19T03:16:54;10.80;;;4.43;;
44706;SDS011;30433;45.596;8.408;2023-09-19T03:22:57;13.33;;;4.40;;
44706;SDS011;30433;45.596;8.408;2023-09-19T03:29:03;10.00;;;4.13;;
44706;SDS011;30433;45.596;8.408;2023-09-19T03:35:08;10.00;;;4.20;;
44706;SDS011;30433;45.596;8.408;2023-09-19T03:41:15;9.52;;;3.45;;
44706;SDS011;30433;45.596;8.408;2023-09-19T03:47:17;7.53;;;3.90;;
44706;SDS011;30433;45.596;8.408;2023-09-19T03:53:20;8.98;;;3.65;;
44706;SDS011;30433;45.596;8.408;2023-09-19T03:59:23;5.70;;;2.83;;
44706;SDS011;30433;45.596;8.408;2023-09-19T04:05:26;8.43;;;3.33;;
44706;SDS011;30433;45.596;8.408;2023-09-19T04:11:28;8.63;;;3.57;;
44706;SDS011;30433;45.596;8.408;2023-09-19T04:17:31;9.17;;;3.50;;
44706;SDS011;30433;45.596;8.408;2023-09-19T04:23:34;6.88;;;3.08;;
44706;SDS011;30433;45.596;8.408;2023-09-19T04:29:36;7.90;;;3.50;;
44706;SDS011;30433;45.596;8.408;2023-09-19T04:35:41;10.43;;;3.25;;
44706;SDS011;30433;45.596;8.408;2023-09-19T04:41:44;7.80;;;3.20;;
44706;SDS011;30433;45.596;8.408;2023-09-19T04:47:48;4.57;;;2.90;;
44706;SDS011;30433;45.596;8.408;2023-09-19T04:53:51;9.07;;;2.97;;
44706;SDS011;30433;45.596;8.408;2023-09-19T04:59:53;8.30;;;3.17;;
44706;SDS011;30433;45.596;8.408;2023-09-19T05:05:55;10.00;;;2.73;;
44706;SDS011;30433;45.596;8.408;2023-09-19T05:11:59;7.57;;;3.23;;
44706;SDS011;30433;45.596;8.408;2023-09-19T05:18:01;6.68;;;2.63;;
44706;SDS011;30433;45.596;8.408;2023-09-19T05:24:04;12.20;;;3.78;;
44706;SDS011;30433;45.596;8.408;2023-09-19T05:30:09;9.65;;;2.63;;
44706;SDS011;30433;45.596;8.408;2023-09-19T05:36:14;8.70;;;3.35;;
44706;SDS011;30433;45.596;8.408;2023-09-19T05:42:16;8.98;;;2.67;;
44706;SDS011;30433;45.596;8.408;2023-09-19T05:48:20;11.00;;;2.67;;
44706;SDS011;30433;45.596;8.408;2023-09-19T05:54:22;7.72;;;2.85;;
44706;SDS011;30433;45.596;8.408;2023-09-19T06:00:25;12.53;;;3.13;;
44706;SDS011;30433;45.596;8.408;2023-09-19T06:06:28;14.70;;;2.80;;
44706;SDS011;30433;45.596;8.408;2023-09-19T06:12:31;10.25;;;3.00;;
44706;SDS011;30433;45.596;8.408;2023-09-19T06:18:37;5.35;;;2.40;;
44706;SDS011;30433;45.596;8.408;2023-09-19T06:24:41;2.85;;;2.22;;
44706;SDS011;30433;45.596;8.408;2023-09-19T06:30:43;5.82;;;2.65;;
44706;SDS011;30433;45.596;8.408;2023-09-19T06:36:45;7.88;;;2.42;;
44706;SDS011;30433;45.596;8.408;2023-09-19T06:42:50;9.70;;;2.65;;
44706;SDS011;30433;45.596;8.408;2023-09-19T06:48:52;5.05;;;2.20;;
44706;SDS011;30433;45.596;8.408;2023-09-19T06:54:55;4.87;;;1.97;;
44706;SDS011;30433;45.596;8.408;2023-09-19T07:00:58;5.45;;;2.35;;
44706;SDS011;30433;45.596;8.408;2023-09-19T07:07:01;7.20;;;2.45;;
44706;SDS011;30433;45.596;8.408;2023-09-19T07:13:04;7.78;;;2.20;;
44706;SDS011;30433;45.596;8.408;2023-09-19T07:19:10;4.97;;;2.33;;
44706;SDS011;30433;45.596;8.408;2023-09-19T07:25:15;3.35;;;2.15;;
44706;SDS011;30433;45.596;8.408;2023-09-19T07:31:17;7.57;;;2.10;;
44706;SDS011;30433;45.596;8.408;2023-09-19T07:37:21;4.72;;;1.90;;
44706;SDS011;30433;45.596;8.408;2023-09-19T07:43:25;5.63;;;1.85;;
44706;SDS011;30433;45.596;8.408;2023-09-19T07:49:28;8.27;;;2.40;;
44706;SDS011;30433;45.596;8.408;2023-09-19T07:55:31;5.38;;;2.30;;
44706;SDS011;30433;45.596;8.408;2023-09-19T08:01:34;4.55;;;2.03;;
44706;SDS011;30433;45.596;8.408;2023-09-19T08:07:37;6.90;;;2.40;;
44706;SDS011;30433;45.596;8.408;2023-09-19T08:13:41;7.10;;;2.95;;
44706;SDS011;30433;45.596;8.408;2023-09-19T08:19:45;3.55;;;2.67;;
44706;SDS011;30433;45.596;8.408;2023-09-19T08:25:49;6.65;;;2.88;;
44706;SDS011;30433;45.596;8.408;2023-09-19T08:31:53;6.07;;;2.38;;
44706;SDS011;30433;45.596;8.408;2023-09-19T08:37:55;4.57;;;2.80;;
44706;SDS011;30433;45.596;8.408;2023-09-19T08:43:58;4.93;;;3.03;;
44706;SDS011;30433;45.596;8.408;2023-09-19T08:50:03;5.57;;;3.15;;
44706;SDS011;30433;45.596;8.408;2023-09-19T08:56:14;5.63;;;2.83;;
44706;SDS011;30433;45.596;8.408;2023-09-19T09:02:20;7.70;;;2.78;;
44706;SDS011;30433;45.596;8.408;2023-09-19T09:08:25;3.70;;;2.58;;
44706;SDS011;30433;45.596;8.408;2023-09-19T09:14:27;7.05;;;2.95;;
44706;SDS011;30433;45.596;8.408;2023-09-19T09:20:30;5.28;;;2.40;;
44706;SDS011;30433;45.596;8.408;2023-09-19T09:32:45;4.18;;;2.40;;
44706;SDS011;30433;45.596;8.408;2023-09-19T09:38:48;4.90;;;2.28;;
44706;SDS011;30433;45.596;8.408;2023-09-19T09:44:54;3.70;;;2.17;;
44706;SDS011;30433;45.596;8.408;2023-09-19T09:51:14;6.05;;;2.67;;
44706;SDS011;30433;45.596;8.408;2023-09-19T09:57:18;4.80;;;2.38;;
44706;SDS011;30433;45.596;8.408;2023-09-19T10:03:34;4.78;;;2.65;;
44706;SDS011;30433;45.596;8.408;2023-09-19T10:09:44;5.38;;;2.30;;
44706;SDS011;30433;45.596;8.408;2023-09-19T10:15:47;5.63;;;2.45;;
44706;SDS011;30433;45.596;8.408;2023-09-19T10:21:55;4.28;;;2.75;;
44706;SDS011;30433;45.596;8.408;2023-09-19T10:28:00;4.47;;;2.40;;
44706;SDS011;30433;45.596;8.408;2023-09-19T10:34:04;6.43;;;2.22;;
44706;SDS011;30433;45.596;8.408;2023-09-19T10:40:11;5.00;;;2.65;;
44706;SDS011;30433;45.596;8.408;2023-09-19T10:46:16;11.40;;;2.95;;
44706;SDS011;30433;45.596;8.408;2023-09-19T10:52:19;5.18;;;2.67;;
44706;SDS011;30433;45.596;8.408;2023-09-19T10:58:29;8.57;;;2.45;;
44706;SDS011;30433;45.596;8.408;2023-09-19T11:04:35;6.57;;;2.80;;
44706;SDS011;30433;45.596;8.408;2023-09-19T11:10:48;8.10;;;2.78;;
44706;SDS011;30433;45.596;8.408;2023-09-19T11:23:55;4.68;;;2.65;;
44706;SDS011;30433;45.596;8.408;2023-09-19T11:30:31;8.93;;;3.08;;
44706;SDS011;30433;45.596;8.408;2023-09-19T11:36:35;7.45;;;2.58;;
44706;SDS011;30433;45.596;8.408;2023-09-19T11:42:43;4.18;;;2.88;;
44706;SDS011;30433;45.596;8.408;2023-09-19T11:48:50;5.30;;;2.60;;
44706;SDS011;30433;45.596;8.408;2023-09-19T11:54:54;4.88;;;2.85;;
44706;SDS011;30433;45.596;8.408;2023-09-19T12:00:59;6.57;;;2.83;;
44706;SDS011;30433;45.596;8.408;2023-09-19T12:07:08;4.82;;;2.50;;
44706;SDS011;30433;45.596;8.408;2023-09-19T12:13:16;3.92;;;2.53;;
44706;SDS011;30433;45.596;8.408;2023-09-19T12:19:20;3.30;;;2.17;;
44706;SDS011;30433;45.596;8.408;2023-09-19T12:25:23;3.42;;;2.42;;
44706;SDS011;30433;45.596;8.408;2023-09-19T12:31:27;6.25;;;2.00;;
44706;SDS011;30433;45.596;8.408;2023-09-19T12:37:31;3.00;;;2.30;;
44706;SDS011;30433;45.596;8.408;2023-09-19T12:43:36;4.65;;;2.45;;
44706;SDS011;30433;45.596;8.408;2023-09-19T12:56:09;3.85;;;2.63;;
44706;SDS011;30433;45.596;8.408;2023-09-19T13:02:14;4.72;;;2.83;;
44706;SDS011;30433;45.596;8.408;2023-09-19T13:08:20;4.30;;;2.30;;
44706;SDS011;30433;45.596;8.408;2023-09-19T13:14:28;3.92;;;2.20;;
44706;SDS011;30433;45.596;8.408;2023-09-19T13:20:33;4.60;;;2.60;;
44706;SDS011;30433;45.596;8.408;2023-09-19T13:26:39;5.50;;;2.38;;
44706;SDS011;30433;45.596;8.408;2023-09-19T13:32:43;4.60;;;2.00;;
44706;SDS011;30433;45.596;8.408;2023-09-19T13:38:47;4.78;;;2.53;;
44706;SDS011;30433;45.596;8.408;2023-09-19T13:44:49;4.53;;;2.25;;
44706;SDS011;30433;45.596;8.408;2023-09-19T13:50:55;8.57;;;2.65;;
44706;SDS011;30433;45.596;8.408;2023-09-19T13:56:57;4.63;;;2.20;;
44706;SDS011;30433;45.596;8.408;2023-09-19T14:03:00;3.53;;;2.20;;
44706;SDS011;30433;45.596;8.408;2023-09-19T14:09:06;4.35;;;2.20;;
44706;SDS011;30433;45.596;8.408;2023-09-19T14:15:08;3.85;;;2.17;;
44706;SDS011;30433;45.596;8.408;2023-09-19T14:21:11;3.15;;;2.20;;
44706;SDS011;30433;45.596;8.408;2023-09-19T14:27:16;5.10;;;2.40;;
44706;SDS011;30433;45.596;8.408;2023-09-19T14:33:18;3.85;;;2.50;;
44706;SDS011;30433;45.596;8.408;2023-09-19T14:39:20;5.68;;;2.53;;
44706;SDS011;30433;45.596;8.408;2023-09-19T14:45:24;5.50;;;2.40;;
44706;SDS011;30433;45.596;8.408;2023-09-19T14:51:28;3.63;;;2.50;;
44706;SDS011;30433;45.596;8.408;2023-09-19T14:57:31;4.45;;;2.50;;
44706;SDS011;30433;45.596;8.408;2023-09-19T15:03:35;3.78;;;2.60;;
44706;SDS011;30433;45.596;8.408;2023-09-19T15:09:37;5.20;;;3.28;;
44706;SDS011;30433;45.596;8.408;2023-09-19T15:15:39;5.03;;;2.80;;
44706;SDS011;30433;45.596;8.408;2023-09-19T15:21:44;7.15;;;2.78;;
44706;SDS011;30433;45.596;8.408;2023-09-19T15:27:46;3.70;;;2.75;;
44706;SDS011;30433;45.596;8.408;2023-09-19T15:33:50;7.75;;;3.00;;
44706;SDS011;30433;45.596;8.408;2023-09-19T15:39:53;6.90;;;3.40;;
44706;SDS011;30433;45.596;8.408;2023-09-19T15:45:56;6.85;;;3.63;;
44706;SDS011;30433;45.596;8.408;2023-09-19T15:51:58;8.43;;;3.17;;
44706;SDS011;30433;45.596;8.408;2023-09-19T15:58:02;3.97;;;2.90;;
44706;SDS011;30433;45.596;8.408;2023-09-19T16:04:06;8.35;;;2.97;;
44706;SDS011;30433;45.596;8.408;2023-09-19T16:10:10;5.20;;;3.00;;
44706;SDS011;30433;45.596;8.408;2023-09-19T16:16:15;6.25;;;3.08;;
44706;SDS011;30433;45.596;8.408;2023-09-19T16:22:20;6.75;;;3.25;;
44706;SDS011;30433;45.596;8.408;2023-09-19T16:28:22;10.60;;;2.90;;
44706;SDS011;30433;45.596;8.408;2023-09-19T16:34:26;9.65;;;3.40;;
44706;SDS011;30433;45.596;8.408;2023-09-19T16:40:28;8.25;;;3.05;;
44706;SDS011;30433;45.596;8.408;2023-09-19T16:46:31;5.82;;;3.30;;
44706;SDS011;30433;45.596;8.408;2023-09-19T16:52:35;9.43;;;3.83;;
44706;SDS011;30433;45.596;8.408;2023-09-19T16:58:39;8.57;;;3.35;;
44706;SDS011;30433;45.596;8.408;2023-09-19T17:04:42;5.10;;;3.13;;
44706;SDS011;30433;45.596;8.408;2023-09-19T17:10:46;4.38;;;3.08;;
44706;SDS011;30433;45.596;8.408;2023-09-19T17:16:48;4.82;;;2.92;;
44706;SDS011;30433;45.596;8.408;2023-09-19T17:22:51;7.13;;;4.03;;
44706;SDS011;30433;45.596;8.408;2023-09-19T17:28:54;5.97;;;3.70;;
44706;SDS011;30433;45.596;8.408;2023-09-19T17:34:57;5.75;;;4.32;;
44706;SDS011;30433;45.596;8.408;2023-09-19T17:41:03;7.07;;;3.30;;
44706;SDS011;30433;45.596;8.408;2023-09-19T17:47:09;8.43;;;3.15;;
44706;SDS011;30433;45.596;8.408;2023-09-19T17:53:11;11.30;;;3.50;;
44706;SDS011;30433;45.596;8.408;2023-09-19T18:05:17;11.15;;;3.00;;
44706;SDS011;30433;45.596;8.408;2023-09-19T18:11:21;7.03;;;3.33;;
44706;SDS011;30433;45.596;8.408;2023-09-19T18:17:25;6.13;;;3.65;;
44706;SDS011;30433;45.596;8.408;2023-09-19T18:29:31;6.75;;;3.65;;
44706;SDS011;30433;45.596;8.408;2023-09-19T18:35:34;4.88;;;3.60;;
44706;SDS011;30433;45.596;8.408;2023-09-19T18:41:37;5.38;;;3.60;;
44706;SDS011;30433;45.596;8.408;2023-09-19T18:47:40;8.68;;;4.38;;
44706;SDS011;30433;45.596;8.408;2023-09-19T18:53:42;11.32;;;4.78;;
44706;SDS011;30433;45.596;8.408;2023-09-19T18:59:47;8.00;;;4.40;;
44706;SDS011;30433;45.596;8.408;2023-09-19T19:05:49;7.93;;;4.57;;
44706;SDS011;30433;45.596;8.408;2023-09-19T19:11:52;7.85;;;4.30;;
44706;SDS011;30433;45.596;8.408;2023-09-19T19:17:56;7.55;;;4.18;;
44706;SDS011;30433;45.596;8.408;2023-09-19T19:23:58;8.55;;;3.90;;
44706;SDS011;30433;45.596;8.408;2023-09-19T19:30:01;7.13;;;4.07;;
44706;SDS011;30433;45.596;8.408;2023-09-19T19:36:07;6.43;;;4.20;;
44706;SDS011;30433;45.596;8.408;2023-09-19T19:42:10;11.07;;;4.40;;
44706;SDS011;30433;45.596;8.408;2023-09-19T19:48:13;10.10;;;4.32;;
44706;SDS011;30433;45.596;8.408;2023-09-19T19:54:18;9.90;;;3.95;;
44706;SDS011;30433;45.596;8.408;2023-09-19T20:00:20;6.80;;;3.88;;
44706;SDS011;30433;45.596;8.408;2023-09-19T20:12:27;7.75;;;3.95;;
44706;SDS011;30433;45.596;8.408;2023-09-19T20:18:29;6.40;;;4.20;;
44706;SDS011;30433;45.596;8.408;2023-09-19T20:24:32;8.88;;;3.92;;
44706;SDS011;30433;45.596;8.408;2023-09-19T20:30:39;6.72;;;3.80;;
44706;SDS011;30433;45.596;8.408;2023-09-19T20:36:42;6.15;;;3.55;;
44706;SDS011;30433;45.596;8.408;2023-09-19T20:42:44;7.93;;;3.83;;
44706;SDS011;30433;45.596;8.408;2023-09-19T20:48:47;9.27;;;4.20;;
44706;SDS011;30433;45.596;8.408;2023-09-19T20:54:50;4.72;;;3.00;;
44706;SDS011;30433;45.596;8.408;2023-09-19T21:00:59;5.07;;;3.10;;
44706;SDS011;30433;45.596;8.408;2023-09-19T21:07:05;8.05;;;3.50;;
44706;SDS011;30433;45.596;8.408;2023-09-19T21:13:07;7.65;;;3.47;;
44706;SDS011;30433;45.596;8.408;2023-09-19T21:19:09;6.03;;;4.10;;
44706;SDS011;30433;45.596;8.408;2023-09-19T21:25:13;7.88;;;3.53;;
44706;SDS011;30433;45.596;8.408;2023-09-19T21:31:15;6.80;;;2.85;;
44706;SDS011;30433;45.596;8.408;2023-09-19T21:37:17;9.10;;;3.50;;
44706;SDS011;30433;45.596;8.408;2023-09-19T21:43:21;8.65;;;3.55;;
44706;SDS011;30433;45.596;8.408;2023-09-19T21:49:23;4.65;;;3.00;;
44706;SDS011;30433;45.596;8.408;2023-09-19T21:55:26;5.28;;;3.20;;
44706;SDS011;30433;45.596;8.408;2023-09-19T22:01:29;7.45;;;2.88;;
44706;SDS011;30433;45.596;8.408;2023-09-19T22:07:31;5.10;;;2.55;;
44706;SDS011;30433;45.596;8.408;2023-09-19T22:13:33;6.68;;;2.45;;
44706;SDS011;30433;45.596;8.408;2023-09-19T22:19:37;7.80;;;2.78;;
44706;SDS011;30433;45.596;8.408;2023-09-19T22:25:43;6.88;;;2.70;;
44706;SDS011;30433;45.596;8.408;2023-09-19T22:31:46;6.43;;;2.38;;
44706;SDS011;30433;45.596;8.408;2023-09-19T22:37:51;5.40;;;2.50;;
44706;SDS011;30433;45.596;8.408;2023-09-19T22:43:53;8.25;;;2.55;;
44706;SDS011;30433;45.596;8.408;2023-09-19T22:49:57;5.57;;;2.38;;
44706;SDS011;30433;45.596;8.408;2023-09-19T22:56:00;4.07;;;2.45;;
44706;SDS011;30433;45.596;8.408;2023-09-19T23:02:10;5.82;;;2.30;;
44706;SDS011;30433;45.596;8.408;2023-09-19T23:08:14;5.07;;;2.40;;
44706;SDS011;30433;45.596;8.408;2023-09-19T23:14:18;4.72;;;2.50;;
44706;SDS011;30433;45.596;8.408;2023-09-19T23:20:23;5.72;;;2.40;;
44706;SDS011;30433;45.596;8.408;2023-09-19T23:26:26;5.85;;;2.22;;
44706;SDS011;30433;45.596;8.408;2023-09-19T23:32:30;3.15;;;2.20;;
44706;SDS011;30433;45.596;8.408;2023-09-19T23:38:32;5.80;;;2.15;;
44706;SDS011;30433;45.596;8.408;2023-09-19T23:44:34;4.70;;;2.22;;
44706;SDS011;30433;45.596;8.408;2023-09-19T23:50:39;5.07;;;2.10;;
44706;SDS011;30433;45.596;8.408;2023-09-19T23:56:43;6.18;;;2.47;;
